FR-0164 weather

Challans Heliport
Challans, Pays-de-la-Loire, France

Public forecast

Using degrees Celsius for public forecast. Weather courtesy of forecast.io.

Closest aviation weather report (METAR) to Challans Heliport

Closest report is Nantes Atlantique Airport, 20.1 nm (37.2 km) NNE. Retrieved 2020/02/19 16:30 UTC (0 seconds ago):

LFRS 191630Z AUTO 25010KT 220V280 9999 SCT020 SCT028 OVC044 11/08 Q1026 NOSIG

Closest aviation forecast (TAF) to Challans Heliport

Closest forecast is Nantes Atlantique Airport, 20.1 nm (37.2 km) NNE. Retrieved 2020/02/19 12:21 UTC (4 hours ago):

TAF LFRS 191100Z 1912/2018 27012KT 9999 BKN020 BKN045 BECMG 1917/1919 21007KT PROB40 TEMPO 1922/2009 4500 -RA BKN014 BKN040 BECMG 2010/2012 21015G25KT TEMPO 2014/2017 24020G35KT 3000 RA BKN012 BKN040 FM201700 32012KT 9999 SCT030